Time;durP1;ratioP1;P1;durP2;ratioP2;P2;SDS_P1;SDS_P2;PMS_P1;PMS_P2;Temp;Humidity;BMP_temperature;BMP_pressure;BME280_temperature;BME280_humidity;BME280_pressure;Samples;Min_cycle;Max_cycle;Signal;HPM_P1;HPM_P2
2020/12/08 00:02:20;;;;;;;29.52;21.88;;;4.10;72.30;;;;;;5028897;28;20469;-75
2020/12/08 00:04:46;;;;;;;27.95;21.58;;;4.10;72.30;;;;;;5026981;28;20443;-75
2020/12/08 00:07:12;;;;;;;26.25;20.90;;;4.10;72.30;;;;;;5026688;28;20132;-75
2020/12/08 00:09:38;;;;;;;26.13;21.27;;;4.10;72.30;;;;;;5017072;28;20485;-75
2020/12/08 00:12:05;;;;;;;30.98;21.65;;;4.10;72.40;;;;;;5023395;28;20662;-74
2020/12/08 00:14:31;;;;;;;27.08;20.90;;;4.10;72.40;;;;;;5028475;28;20028;-75
2020/12/08 00:16:58;;;;;;;26.00;20.02;;;4.10;72.30;;;;;;5028390;28;20116;-74
2020/12/08 00:19:24;;;;;;;27.30;20.92;;;4.10;72.40;;;;;;5027510;28;20037;-73
2020/12/08 00:21:50;;;;;;;25.75;20.92;;;4.10;72.40;;;;;;5026828;28;20161;-74
2020/12/08 00:24:16;;;;;;;23.98;19.35;;;4.00;72.20;;;;;;5010320;28;20105;-75
2020/12/08 00:26:42;;;;;;;23.38;19.70;;;4.10;72.40;;;;;;5026539;28;20191;-74
2020/12/08 00:29:09;;;;;;;29.85;21.15;;;4.10;72.50;;;;;;5026262;28;20026;-75
2020/12/08 00:31:36;;;;;;;26.40;19.77;;;4.10;72.50;;;;;;5028447;28;20033;-75
2020/12/08 00:34:03;;;;;;;26.55;21.77;;;4.10;72.50;;;;;;5026560;28;20105;-75
2020/12/08 00:36:29;;;;;;;29.05;20.65;;;4.10;72.50;;;;;;5027593;28;20481;-74
2020/12/08 00:38:55;;;;;;;26.17;20.67;;;4.10;72.50;;;;;;5027693;28;20167;-74
2020/12/08 00:41:22;;;;;;;26.38;20.38;;;4.10;72.50;;;;;;5025529;28;20128;-75
2020/12/08 00:43:50;;;;;;;32.53;21.52;;;4.10;72.50;;;;;;5025963;28;20022;-74
2020/12/08 00:46:18;;;;;;;26.63;19.25;;;4.10;72.50;;;;;;5009970;28;20053;-75
2020/12/08 00:48:45;;;;;;;28.40;20.63;;;4.10;72.50;;;;;;5027002;28;20053;-74
2020/12/08 00:51:12;;;;;;;27.88;21.70;;;4.00;72.30;;;;;;5026321;28;20511;-75
2020/12/08 00:53:38;;;;;;;26.08;20.52;;;4.10;72.50;;;;;;5009215;28;20029;-75
2020/12/08 00:56:12;;;;;;;26.23;20.48;;;4.10;72.60;;;;;;5009581;28;20037;-76
2020/12/08 00:58:41;;;;;;;30.85;22.02;;;4.10;72.60;;;;;;5025856;28;20059;-75
2020/12/08 01:01:09;;;;;;;30.48;21.40;;;4.10;72.60;;;;;;5009553;28;20166;-75
2020/12/08 01:03:36;;;;;;;28.15;20.25;;;4.10;72.60;;;;;;5025955;28;20052;-75
2020/12/08 01:06:03;;;;;;;25.85;21.17;;;4.00;72.40;;;;;;5025708;28;20436;-74
2020/12/08 01:08:29;;;;;;;24.92;19.60;;;4.00;72.40;;;;;;5009308;28;20030;-75
2020/12/08 01:10:56;;;;;;;24.80;19.67;;;4.00;72.40;;;;;;5025268;28;20037;-75
2020/12/08 01:13:24;;;;;;;25.95;21.13;;;4.00;72.40;;;;;;5025842;28;20033;-75
2020/12/08 01:15:50;;;;;;;25.48;20.90;;;4.00;72.50;;;;;;5025547;28;20471;-75
2020/12/08 01:18:17;;;;;;;32.42;21.33;;;4.10;72.70;;;;;;5025741;28;20029;-75
2020/12/08 01:20:43;;;;;;;27.00;20.90;;;4.00;72.50;;;;;;5009210;28;20033;-75
2020/12/08 01:23:10;;;;;;;31.15;21.73;;;4.00;72.50;;;;;;5026706;28;20117;-76
2020/12/08 01:25:36;;;;;;;26.80;21.45;;;4.00;72.50;;;;;;5009026;28;20128;-74
2020/12/08 01:28:03;;;;;;;25.92;20.90;;;4.00;72.50;;;;;;5025486;28;20121;-76
2020/12/08 01:30:29;;;;;;;30.30;20.85;;;4.00;72.50;;;;;;5025449;28;20034;-74
2020/12/08 01:32:57;;;;;;;25.52;19.52;;;4.00;72.50;;;;;;5025172;28;20044;-75
2020/12/08 01:35:25;;;;;;;27.33;20.83;;;4.00;72.50;;;;;;5009475;28;20025;-75
2020/12/08 01:37:58;;;;;;;28.20;21.02;;;4.00;72.50;;;;;;5025443;28;20107;-76
2020/12/08 01:40:24;;;;;;;25.17;20.88;;;4.00;72.50;;;;;;5008819;28;20061;-75
2020/12/08 01:42:51;;;;;;;31.63;22.15;;;4.00;72.50;;;;;;5026274;28;20029;-75
2020/12/08 01:45:17;;;;;;;29.05;22.38;;;4.00;72.50;;;;;;5026861;28;20045;-74
2020/12/08 01:47:46;;;;;;;25.83;21.30;;;4.00;72.50;;;;;;5008776;28;20049;-74
2020/12/08 01:50:13;;;;;;;28.65;20.80;;;4.00;72.50;;;;;;5024928;28;20048;-74
2020/12/08 01:52:40;;;;;;;31.50;20.13;;;4.00;72.50;;;;;;5007651;28;20033;-75
2020/12/08 01:55:07;;;;;;;27.73;22.55;;;4.00;72.50;;;;;;5024779;28;20109;-75
2020/12/08 01:57:40;;;;;;;28.60;21.98;;;4.00;72.50;;;;;;5009404;28;20111;-75
2020/12/08 02:00:09;;;;;;;27.85;21.98;;;4.00;72.50;;;;;;5024559;28;20393;-75
2020/12/08 02:02:42;;;;;;;32.08;20.60;;;4.00;72.50;;;;;;5026014;28;20029;-75
2020/12/08 02:05:16;;;;;;;29.17;20.75;;;4.00;72.50;;;;;;5024685;28;20029;-75
2020/12/08 02:07:43;;;;;;;29.25;22.20;;;4.00;72.50;;;;;;5008414;28;20029;-74
2020/12/08 02:10:10;;;;;;;28.55;21.35;;;4.00;72.60;;;;;;5024352;28;20025;-73
2020/12/08 02:12:36;;;;;;;29.80;22.33;;;4.00;72.60;;;;;;5008624;28;20057;-74
2020/12/08 02:15:03;;;;;;;27.38;20.77;;;4.00;72.60;;;;;;5008249;28;20029;-74
2020/12/08 02:17:31;;;;;;;26.33;21.73;;;4.00;72.60;;;;;;5024958;28;20033;-74
2020/12/08 02:19:57;;;;;;;24.58;19.75;;;4.00;72.60;;;;;;5024260;28;20076;-74
2020/12/08 02:22:25;;;;;;;26.80;20.83;;;4.00;72.60;;;;;;5008447;28;20455;-74
2020/12/08 02:24:51;;;;;;;29.38;21.98;;;4.00;72.60;;;;;;5024228;28;20032;-74
2020/12/08 02:27:19;;;;;;;31.40;21.00;;;4.00;72.60;;;;;;5024856;28;20044;-74
2020/12/08 02:29:48;;;;;;;32.20;20.27;;;4.00;72.60;;;;;;5024137;28;20064;-75
2020/12/08 02:32:15;;;;;;;30.42;21.67;;;4.00;72.60;;;;;;5024692;28;20464;-74
2020/12/08 02:34:41;;;;;;;32.40;22.77;;;4.00;72.60;;;;;;5024787;28;20084;-74
2020/12/08 02:37:07;;;;;;;30.27;22.60;;;4.00;72.60;;;;;;5024545;28;20057;-75
2020/12/08 02:39:42;;;;;;;22.67;19.33;;;4.00;72.60;;;;;;5024283;28;20547;-74
2020/12/08 02:42:08;;;;;;;30.80;21.92;;;4.00;72.60;;;;;;5025219;28;20330;-74
2020/12/08 02:44:34;;;;;;;31.33;22.77;;;4.00;72.60;;;;;;5024342;28;20048;-75
2020/12/08 02:47:00;;;;;;;24.70;21.27;;;4.10;72.80;;;;;;5020521;28;20061;-74
2020/12/08 02:49:26;;;;;;;31.35;24.30;;;4.10;72.80;;;;;;5013995;28;20040;-75
2020/12/08 02:51:56;;;;;;;30.58;21.98;;;4.10;72.80;;;;;;5007956;28;20481;-76
2020/12/08 02:54:24;;;;;;;32.88;22.85;;;4.10;72.80;;;;;;5007383;28;20022;-74
2020/12/08 02:56:51;;;;;;;33.25;22.75;;;4.10;72.80;;;;;;5007864;28;20445;-75
2020/12/08 02:59:25;;;;;;;30.25;22.02;;;4.10;72.70;;;;;;5007738;28;20045;-75
2020/12/08 03:01:57;;;;;;;32.25;21.77;;;4.10;72.80;;;;;;5008000;28;20547;-75
2020/12/08 03:04:26;;;;;;;30.23;21.13;;;4.10;72.70;;;;;;5008744;28;20635;-75
2020/12/08 03:06:53;;;;;;;30.10;22.58;;;4.10;72.70;;;;;;5011060;28;20041;-74
2020/12/08 03:09:20;;;;;;;29.05;22.00;;;4.10;72.70;;;;;;5011613;28;20207;-75
2020/12/08 03:11:46;;;;;;;30.48;23.13;;;4.10;72.70;;;;;;5011427;28;20053;-74
2020/12/08 03:14:19;;;;;;;27.50;22.27;;;4.10;72.80;;;;;;5011291;28;20466;-75
2020/12/08 03:16:46;;;;;;;28.90;21.80;;;4.10;72.80;;;;;;5011596;28;20036;-75
2020/12/08 03:19:13;;;;;;;29.30;23.02;;;4.10;72.80;;;;;;5010658;28;20038;-75
2020/12/08 03:21:40;;;;;;;31.65;23.02;;;4.10;72.80;;;;;;5011052;28;20431;-75
2020/12/08 03:24:18;;;;;;;27.70;22.30;;;4.10;72.80;;;;;;5026857;28;20041;-75
2020/12/08 03:26:44;;;;;;;27.63;19.98;;;4.00;72.60;;;;;;5010935;28;20049;-75
2020/12/08 03:29:10;;;;;;;29.17;21.50;;;4.10;72.80;;;;;;5011404;28;20030;-76
2020/12/08 03:31:36;;;;;;;27.88;20.83;;;4.10;72.80;;;;;;5011015;28;20350;-76
2020/12/08 03:34:05;;;;;;;25.25;20.83;;;4.00;72.60;;;;;;5011208;28;20454;-74
2020/12/08 03:36:33;;;;;;;28.75;21.20;;;4.10;72.80;;;;;;5011193;28;20033;-75
2020/12/08 03:39:00;;;;;;;28.42;22.02;;;4.00;72.60;;;;;;5011177;28;20465;-76
2020/12/08 03:41:31;;;;;;;28.63;20.60;;;4.00;72.60;;;;;;5027642;28;20034;-76
2020/12/08 03:44:03;;;;;;;27.35;21.60;;;4.00;72.70;;;;;;5011142;28;20057;-75
2020/12/08 03:46:30;;;;;;;28.25;21.38;;;4.00;72.60;;;;;;5010469;28;20129;-75
2020/12/08 03:48:57;;;;;;;29.70;20.88;;;4.00;72.60;;;;;;5011938;28;20117;-76
2020/12/08 03:51:23;;;;;;;26.98;20.65;;;4.00;72.60;;;;;;5010827;28;20110;-76
2020/12/08 03:53:52;;;;;;;27.90;20.55;;;3.90;72.50;;;;;;4994471;28;20109;-76
2020/12/08 03:56:22;;;;;;;27.17;19.55;;;3.90;72.50;;;;;;5010749;28;20029;-76
2020/12/08 03:58:54;;;;;;;26.50;20.13;;;3.90;72.50;;;;;;5011043;28;20132;-76
2020/12/08 04:01:22;;;;;;;26.27;20.65;;;3.90;72.50;;;;;;5010477;28;20408;-75
2020/12/08 04:03:51;;;;;;;26.88;20.85;;;3.90;72.50;;;;;;5010626;28;20029;-75
2020/12/08 04:06:20;;;;;;;26.45;20.00;;;3.90;72.60;;;;;;5010422;28;20041;-75
2020/12/08 04:08:48;;;;;;;27.95;21.05;;;3.90;72.60;;;;;;5010782;28;20037;-75
2020/12/08 04:11:20;;;;;;;31.40;22.23;;;3.90;72.60;;;;;;5010401;28;20053;-76
2020/12/08 04:13:49;;;;;;;26.88;20.38;;;3.90;72.60;;;;;;5010460;28;20092;-75
2020/12/08 04:16:15;;;;;;;27.50;20.50;;;3.90;72.60;;;;;;5025770;28;20137;-75
2020/12/08 04:18:44;;;;;;;29.02;20.00;;;3.80;72.50;;;;;;5010145;28;20458;-75
2020/12/08 04:21:11;;;;;;;24.92;20.33;;;3.80;72.50;;;;;;5010368;28;20025;-75
2020/12/08 04:23:37;;;;;;;24.60;19.60;;;3.80;72.50;;;;;;5009923;28;20445;-75
2020/12/08 04:26:10;;;;;;;27.17;20.63;;;3.90;72.70;;;;;;4994176;28;20064;-75
2020/12/08 04:28:38;;;;;;;26.75;19.08;;;3.80;72.50;;;;;;5010230;28;20092;-74
2020/12/08 04:31:04;;;;;;;25.00;19.15;;;3.80;72.50;;;;;;5010090;28;20041;-74
2020/12/08 04:33:30;;;;;;;23.73;18.80;;;3.90;72.70;;;;;;5026528;28;20057;-75
2020/12/08 04:35:56;;;;;;;27.52;19.83;;;3.80;72.50;;;;;;5011345;28;20120;-74
2020/12/08 04:38:21;;;;;;;34.00;20.45;;;3.90;72.70;;;;;;5011495;28;20129;-75
2020/12/08 04:40:48;;;;;;;27.67;19.65;;;3.90;72.70;;;;;;5011346;28;20037;-75
2020/12/08 04:43:15;;;;;;;22.35;18.85;;;3.90;72.70;;;;;;5011398;28;20076;-74
2020/12/08 04:45:41;;;;;;;26.25;19.30;;;3.90;72.70;;;;;;5011294;28;20045;-74
2020/12/08 04:48:07;;;;;;;27.65;20.73;;;3.90;72.70;;;;;;5010956;28;20058;-75
2020/12/08 04:50:33;;;;;;;30.08;19.75;;;3.90;72.70;;;;;;5011443;28;20052;-74
2020/12/08 04:53:00;;;;;;;25.50;19.10;;;3.90;72.70;;;;;;5010627;28;20120;-74
2020/12/08 04:55:27;;;;;;;25.60;19.88;;;3.90;72.70;;;;;;5011473;28;20037;-74
2020/12/08 04:57:54;;;;;;;25.23;19.45;;;3.90;72.70;;;;;;5010998;28;20022;-74
2020/12/08 05:00:20;;;;;;;24.35;19.98;;;4.00;72.80;;;;;;5011277;28;20083;-75
2020/12/08 05:02:55;;;;;;;27.38;20.38;;;4.00;72.80;;;;;;5010940;28;20152;-75
2020/12/08 05:05:22;;;;;;;23.92;20.10;;;4.00;72.80;;;;;;5011156;28;20061;-74
2020/12/08 05:07:49;;;;;;;28.05;20.83;;;4.00;72.80;;;;;;5025994;28;20125;-74
2020/12/08 05:10:28;;;;;;;25.83;20.17;;;4.00;72.80;;;;;;5011075;28;20316;-74
2020/12/08 05:12:55;;;;;;;26.33;18.77;;;4.00;72.80;;;;;;5010876;28;20120;-74
2020/12/08 05:15:21;;;;;;;24.77;19.98;;;4.10;72.90;;;;;;5010584;28;20413;-74
2020/12/08 05:17:47;;;;;;;26.10;19.75;;;4.10;72.90;;;;;;5010488;28;20164;-74
2020/12/08 05:20:15;;;;;;;25.67;19.38;;;4.10;72.90;;;;;;5010910;28;20125;-73
2020/12/08 05:22:56;;;;;;;25.75;18.85;;;4.10;72.90;;;;;;5025202;28;20427;-74
2020/12/08 05:25:25;;;;;;;26.05;19.85;;;4.10;72.90;;;;;;5025392;28;20561;-74
2020/12/08 05:27:53;;;;;;;21.30;17.95;;;4.10;72.80;;;;;;5010423;28;20045;-75
2020/12/08 05:30:20;;;;;;;21.23;17.40;;;4.10;72.80;;;;;;4992526;28;20042;-74
2020/12/08 05:32:47;;;;;;;25.48;20.15;;;4.10;72.80;;;;;;5010419;28;20109;-74
2020/12/08 05:35:16;;;;;;;23.27;17.85;;;4.20;73.00;;;;;;5010135;28;20033;-74
2020/12/08 05:37:44;;;;;;;23.75;18.23;;;4.20;73.00;;;;;;5025222;28;20036;-74
2020/12/08 05:40:24;;;;;;;24.75;18.95;;;4.20;73.00;;;;;;5025464;28;20095;-74
2020/12/08 05:42:52;;;;;;;24.75;17.98;;;4.20;73.50;;;;;;5018614;28;20457;-73
2020/12/08 05:45:20;;;;;;;24.30;19.83;;;4.20;73.00;;;;;;4992651;28;20052;-74
2020/12/08 05:47:50;;;;;;;24.08;18.50;;;4.20;73.00;;;;;;5013612;28;20061;-75
2020/12/08 05:50:18;;;;;;;25.88;19.10;;;4.20;73.00;;;;;;5011386;28;20117;-73
2020/12/08 05:52:51;;;;;;;24.75;19.38;;;4.20;73.00;;;;;;5006389;28;20033;-75
2020/12/08 05:55:23;;;;;;;26.02;19.35;;;4.20;73.00;;;;;;5016729;28;20528;-75
2020/12/08 05:57:50;;;;;;;25.85;19.55;;;4.20;73.00;;;;;;5017731;28;20143;-74
2020/12/08 06:00:26;;;;;;;26.98;18.45;;;4.20;73.00;;;;;;5018215;28;20485;-74
2020/12/08 06:02:54;;;;;;;24.70;18.23;;;4.20;73.00;;;;;;5014747;28;20392;-75
2020/12/08 06:05:29;;;;;;;19.10;16.83;;;4.20;73.00;;;;;;5018456;28;20033;-73
2020/12/08 06:07:55;;;;;;;25.08;17.70;;;4.10;72.80;;;;;;5009632;28;20345;-72
2020/12/08 06:10:21;;;;;;;24.58;18.50;;;4.20;73.00;;;;;;5015759;28;20030;-73
2020/12/08 06:12:59;;;;;;;23.83;18.33;;;4.20;73.00;;;;;;5016491;28;20481;-74
2020/12/08 06:15:36;;;;;;;19.58;16.33;;;4.10;72.80;;;;;;5010079;28;20057;-76
2020/12/08 06:18:02;;;;;;;23.10;17.50;;;4.10;72.80;;;;;;5021261;28;20048;-73
2020/12/08 06:20:28;;;;;;;23.10;18.52;;;4.10;72.80;;;;;;5022544;28;20068;-73
2020/12/08 06:22:57;;;;;;;23.27;18.55;;;4.10;72.80;;;;;;5024984;28;20030;-74
2020/12/08 06:25:24;;;;;;;23.63;17.73;;;4.10;72.80;;;;;;5012013;28;20034;-73
2020/12/08 06:27:50;;;;;;;26.95;17.33;;;4.10;72.90;;;;;;5024040;28;20061;-74
2020/12/08 06:30:21;;;;;;;21.45;17.67;;;4.10;72.80;;;;;;4998402;28;20026;-73
2020/12/08 06:32:47;;;;;;;21.40;16.88;;;4.00;72.70;;;;;;5019908;28;20037;-73
2020/12/08 06:35:15;;;;;;;23.23;15.85;;;4.00;72.70;;;;;;5020783;28;20026;-73
2020/12/08 06:37:48;;;;;;;22.25;16.52;;;4.00;72.70;;;;;;5007237;28;20034;-73
2020/12/08 06:40:16;;;;;;;22.48;16.40;;;4.00;72.70;;;;;;5025398;28;20029;-74
2020/12/08 06:42:43;;;;;;;18.95;15.57;;;4.00;72.80;;;;;;5022987;28;20520;-74
2020/12/08 06:45:13;;;;;;;21.38;16.50;;;3.90;72.60;;;;;;5007105;28;20083;-73
2020/12/08 06:47:41;;;;;;;19.90;16.17;;;3.90;72.60;;;;;;5022102;28;20415;-72
2020/12/08 06:50:20;;;;;;;22.20;16.98;;;3.90;72.70;;;;;;5025807;28;20040;-70
2020/12/08 06:53:03;;;;;;;25.65;17.40;;;3.90;72.70;;;;;;5024250;28;20433;-71
2020/12/08 06:55:41;;;;;;;20.85;16.58;;;3.90;72.70;;;;;;5025184;28;20029;-70
2020/12/08 06:58:07;;;;;;;18.40;16.35;;;3.90;72.70;;;;;;5023597;28;20033;-70
2020/12/08 07:00:33;;;;;;;20.80;16.02;;;3.90;72.70;;;;;;5025221;28;20044;-71
2020/12/08 07:03:01;;;;;;;21.42;16.63;;;3.90;72.70;;;;;;5015789;28;20034;-72
2020/12/08 07:05:29;;;;;;;20.20;16.17;;;3.90;72.70;;;;;;5018808;28;20040;-72
2020/12/08 07:07:58;;;;;;;22.00;16.67;;;3.90;72.80;;;;;;5017690;28;20133;-71
2020/12/08 07:10:24;;;;;;;19.73;16.13;;;3.90;72.80;;;;;;5024961;28;20315;-73
2020/12/08 07:12:54;;;;;;;21.55;17.42;;;3.80;72.60;;;;;;5025921;28;20052;-73
2020/12/08 07:15:23;;;;;;;18.35;16.35;;;3.80;72.60;;;;;;5024645;28;20506;-71
2020/12/08 07:17:58;;;;;;;20.40;16.77;;;3.80;72.60;;;;;;5023692;28;20125;-70
2020/12/08 07:20:25;;;;;;;19.55;15.93;;;3.80;72.70;;;;;;5024855;28;20077;-71
2020/12/08 07:22:52;;;;;;;19.98;15.65;;;3.80;72.60;;;;;;5023853;28;20039;-72
2020/12/08 07:25:19;;;;;;;21.00;17.83;;;3.90;72.80;;;;;;5023729;28;20449;-70
2020/12/08 07:27:48;;;;;;;24.60;16.98;;;3.80;72.60;;;;;;5024908;28;20068;-71
2020/12/08 07:30:16;;;;;;;21.15;15.68;;;3.90;72.80;;;;;;5023731;28;20108;-70
2020/12/08 07:32:42;;;;;;;17.95;14.27;;;3.80;72.60;;;;;;5023757;28;20029;-70
2020/12/08 07:35:19;;;;;;;20.25;16.50;;;3.80;72.60;;;;;;5012443;28;20038;-70
2020/12/08 07:37:45;;;;;;;20.38;15.43;;;3.90;72.80;;;;;;5021370;28;20536;-71
2020/12/08 07:40:12;;;;;;;19.88;15.23;;;3.90;72.80;;;;;;5022005;28;20075;-71
2020/12/08 07:42:45;;;;;;;21.80;15.68;;;3.80;72.60;;;;;;5022643;28;20172;-72
2020/12/08 07:45:11;;;;;;;16.05;14.25;;;3.80;72.60;;;;;;5023724;28;20051;-71
2020/12/08 07:47:37;;;;;;;18.13;14.15;;;3.80;72.60;;;;;;5024363;28;20467;-70
2020/12/08 07:50:04;;;;;;;18.20;14.18;;;3.80;72.60;;;;;;5007150;28;20550;-70
2020/12/08 07:52:30;;;;;;;18.15;14.88;;;3.80;72.60;;;;;;5027582;28;20323;-71
2020/12/08 07:54:56;;;;;;;18.52;14.65;;;3.90;72.80;;;;;;5028486;28;20120;-70
2020/12/08 07:57:22;;;;;;;19.80;14.82;;;3.80;72.60;;;;;;5028339;28;20479;-70
2020/12/08 07:59:48;;;;;;;19.23;14.48;;;3.80;72.70;;;;;;5027780;28;20075;-70
2020/12/08 08:02:14;;;;;;;20.67;14.35;;;3.90;72.80;;;;;;5028441;28;20033;-70
2020/12/08 08:04:40;;;;;;;18.65;15.07;;;3.90;72.80;;;;;;5026474;28;20160;-70
2020/12/08 08:07:06;;;;;;;19.27;14.63;;;3.90;72.80;;;;;;5027244;28;20541;-71
2020/12/08 08:09:32;;;;;;;16.95;14.15;;;3.90;72.80;;;;;;5023808;28;20029;-72
2020/12/08 08:12:00;;;;;;;17.55;14.50;;;3.90;72.80;;;;;;5024076;28;20232;-71
2020/12/08 08:14:27;;;;;;;18.50;13.30;;;3.90;72.80;;;;;;5026606;28;20033;-72
2020/12/08 08:16:53;;;;;;;19.05;14.10;;;3.90;72.80;;;;;;5028231;28;20033;-71
2020/12/08 08:19:19;;;;;;;17.13;14.13;;;3.90;72.80;;;;;;5026618;28;20037;-72
2020/12/08 08:21:45;;;;;;;15.18;13.15;;;4.00;73.00;;;;;;5027667;28;20037;-71
2020/12/08 08:24:12;;;;;;;16.73;14.43;;;4.00;72.90;;;;;;5026725;28;20025;-70
2020/12/08 08:26:41;;;;;;;17.75;14.35;;;4.00;72.90;;;;;;5025776;28;20103;-70
2020/12/08 08:29:08;;;;;;;15.82;13.48;;;4.00;72.90;;;;;;5025958;28;20038;-71
2020/12/08 08:31:34;;;;;;;16.50;12.82;;;4.10;73.10;;;;;;5025990;28;20033;-70
2020/12/08 08:34:01;;;;;;;16.40;13.48;;;4.10;73.00;;;;;;5027811;28;20060;-71
2020/12/08 08:36:27;;;;;;;18.50;13.88;;;4.10;73.00;;;;;;5025589;28;20048;-72
2020/12/08 08:38:53;;;;;;;15.40;13.10;;;4.10;73.00;;;;;;5009286;28;20030;-72
2020/12/08 08:41:19;;;;;;;15.63;12.75;;;4.20;73.20;;;;;;5027802;28;20119;-72
2020/12/08 08:43:45;;;;;;;16.83;13.95;;;4.20;73.20;;;;;;5027554;28;20037;-71
2020/12/08 08:46:12;;;;;;;14.77;12.77;;;4.20;73.20;;;;;;5027263;28;20417;-71
2020/12/08 08:48:38;;;;;;;15.80;12.48;;;4.20;73.20;;;;;;5027245;28;20250;-71
2020/12/08 08:51:04;;;;;;;17.00;12.82;;;4.30;73.30;;;;;;5024809;28;20469;-71
2020/12/08 08:53:31;;;;;;;15.05;12.80;;;4.30;73.30;;;;;;5009351;28;20288;-71
2020/12/08 08:55:57;;;;;;;16.88;13.02;;;4.30;73.30;;;;;;5026225;28;20517;-71
2020/12/08 08:58:23;;;;;;;15.80;12.05;;;4.40;73.40;;;;;;5025221;28;20024;-72
2020/12/08 09:00:49;;;;;;;14.95;12.13;;;4.40;73.30;;;;;;5025471;28;20052;-71
2020/12/08 09:03:14;;;;;;;17.02;12.98;;;4.40;73.70;;;;;;5026942;28;20033;-70
2020/12/08 09:05:40;;;;;;;13.75;11.93;;;4.50;73.40;;;;;;5026420;28;20039;-70
2020/12/08 09:08:06;;;;;;;15.10;12.50;;;4.50;73.30;;;;;;5023961;28;20036;-69
2020/12/08 09:10:32;;;;;;;15.00;11.68;;;4.60;73.50;;;;;;5024464;28;20029;-72
2020/12/08 09:12:58;;;;;;;13.30;11.80;;;4.60;73.40;;;;;;5024138;28;20090;-73
2020/12/08 09:15:25;;;;;;;15.93;12.60;;;4.60;73.50;;;;;;5026319;28;20040;-74
2020/12/08 09:17:51;;;;;;;15.02;12.30;;;4.70;73.60;;;;;;5026554;28;20068;-72
2020/12/08 09:20:17;;;;;;;12.70;11.25;;;4.70;73.60;;;;;;5025595;28;20099;-73
2020/12/08 09:22:43;;;;;;;13.80;11.70;;;4.70;73.60;;;;;;5025902;28;20033;-74
2020/12/08 09:25:09;;;;;;;12.55;11.25;;;4.80;73.70;;;;;;5025210;28;20045;-73
2020/12/08 09:27:36;;;;;;;13.30;11.40;;;4.80;73.70;;;;;;5025785;28;20082;-73
2020/12/08 09:30:05;;;;;;;13.02;11.52;;;4.90;73.80;;;;;;5026407;28;20465;-73
2020/12/08 09:32:31;;;;;;;12.88;11.52;;;4.90;73.80;;;;;;5026278;28;20037;-74
2020/12/08 09:34:57;;;;;;;13.52;11.07;;;4.90;73.70;;;;;;5026492;28;20030;-74
2020/12/08 09:37:25;;;;;;;13.38;11.95;;;5.00;73.90;;;;;;5026217;28;20414;-73
2020/12/08 09:39:51;;;;;;;14.43;12.02;;;5.00;73.90;;;;;;5024759;28;20630;-73
2020/12/08 09:42:18;;;;;;;15.02;11.98;;;5.10;74.00;;;;;;5008961;28;20442;-73
2020/12/08 09:44:46;;;;;;;16.33;11.77;;;5.10;74.00;;;;;;5024902;28;20033;-73
2020/12/08 09:47:14;;;;;;;12.80;10.07;;;5.10;73.90;;;;;;5024965;28;20057;-74
2020/12/08 09:49:40;;;;;;;13.13;11.32;;;5.10;73.90;;;;;;5024401;28;20327;-74
2020/12/08 09:52:06;;;;;;;12.80;11.50;;;5.10;73.80;;;;;;5024850;28;20164;-74
2020/12/08 09:54:32;;;;;;;12.73;11.35;;;5.20;73.90;;;;;;5026395;28;20453;-74
2020/12/08 09:56:58;;;;;;;13.80;11.52;;;5.20;73.90;;;;;;5024443;28;20083;-74
2020/12/08 09:59:24;;;;;;;13.25;11.07;;;5.20;73.90;;;;;;5008162;28;20502;-73
2020/12/08 10:01:50;;;;;;;13.10;11.70;;;5.20;73.90;;;;;;5024310;28;20124;-74
2020/12/08 10:04:16;;;;;;;14.45;10.77;;;5.20;73.90;;;;;;5025812;28;20436;-75
2020/12/08 10:06:42;;;;;;;14.48;10.57;;;5.20;73.90;;;;;;5026134;28;20037;-73
2020/12/08 10:09:08;;;;;;;12.30;10.98;;;5.20;73.90;;;;;;5024257;28;20144;-75
2020/12/08 10:11:34;;;;;;;16.23;11.68;;;5.20;73.90;;;;;;5024499;28;20551;-74
2020/12/08 10:14:00;;;;;;;12.57;10.73;;;5.20;73.90;;;;;;5007606;28;20029;-74
2020/12/08 10:16:27;;;;;;;12.13;10.90;;;5.20;73.90;;;;;;5007388;28;20119;-73
2020/12/08 10:18:53;;;;;;;12.05;10.30;;;5.30;74.10;;;;;;5024300;28;20044;-73
2020/12/08 10:21:20;;;;;;;14.75;11.18;;;5.20;73.90;;;;;;5011589;28;20472;-74
2020/12/08 10:23:47;;;;;;;14.45;10.40;;;5.30;74.10;;;;;;5020386;28;20029;-75
2020/12/08 10:26:13;;;;;;;14.27;11.30;;;5.30;74.10;;;;;;5024028;28;20036;-73
2020/12/08 10:28:39;;;;;;;15.55;11.50;;;5.30;74.10;;;;;;5025818;28;20033;-73
2020/12/08 10:31:05;;;;;;;14.20;10.98;;;5.30;74.10;;;;;;5023672;28;20036;-74
2020/12/08 10:33:31;;;;;;;12.80;11.40;;;5.40;74.30;;;;;;5024573;28;20369;-75
2020/12/08 10:35:57;;;;;;;13.70;9.93;;;5.40;74.30;;;;;;5024170;28;20030;-74
2020/12/08 10:38:24;;;;;;;13.15;10.18;;;5.40;74.30;;;;;;5025744;28;20104;-73
2020/12/08 10:40:50;;;;;;;11.93;9.57;;;5.50;74.40;;;;;;5023812;28;20051;-73
2020/12/08 10:43:17;;;;;;;13.95;9.93;;;5.50;74.40;;;;;;5025356;28;20026;-73
2020/12/08 10:45:43;;;;;;;11.35;10.25;;;5.50;74.30;;;;;;5025302;28;20534;-73
2020/12/08 10:48:09;;;;;;;11.98;10.20;;;5.60;75.00;;;;;;5025568;28;20532;-73
2020/12/08 10:50:35;;;;;;;12.20;9.27;;;5.60;74.40;;;;;;5025260;28;20033;-73
2020/12/08 10:53:01;;;;;;;10.90;8.82;;;5.60;74.40;;;;;;5024342;28;20029;-74
2020/12/08 10:55:27;;;;;;;13.63;9.52;;;5.70;74.60;;;;;;5023251;28;20507;-73
2020/12/08 10:57:53;;;;;;;10.02;9.02;;;5.70;74.50;;;;;;5023504;28;20105;-73
2020/12/08 11:00:19;;;;;;;11.20;9.40;;;5.80;74.60;;;;;;5024542;28;20051;-74
2020/12/08 11:02:45;;;;;;;12.13;9.48;;;5.80;74.60;;;;;;5024982;28;20481;-73
2020/12/08 11:05:11;;;;;;;9.77;8.63;;;5.80;74.60;;;;;;5026174;28;20125;-76
2020/12/08 11:07:37;;;;;;;11.13;8.25;;;5.90;74.70;;;;;;5023951;28;20047;-73
2020/12/08 11:10:03;;;;;;;12.93;8.95;;;5.90;74.70;;;;;;5024809;28;20064;-73
2020/12/08 11:12:29;;;;;;;11.25;8.95;;;6.00;74.80;;;;;;5024274;28;20029;-73
2020/12/08 11:14:55;;;;;;;9.63;8.63;;;6.00;74.80;;;;;;5023802;28;20513;-74
2020/12/08 11:17:21;;;;;;;11.77;7.72;;;6.10;74.90;;;;;;5022977;28;20025;-73
2020/12/08 11:19:47;;;;;;;9.80;6.68;;;6.10;74.80;;;;;;5025272;28;20033;-74
2020/12/08 11:22:13;;;;;;;8.98;6.57;;;6.20;75.10;;;;;;5024921;28;20037;-75
2020/12/08 11:24:41;;;;;;;8.80;6.82;;;6.20;75.20;;;;;;5023994;28;20064;-73
2020/12/08 11:27:17;;;;;;;8.00;6.65;;;6.30;75.40;;;;;;5029074;28;20175;-77
2020/12/08 11:29:44;;;;;;;8.50;7.47;;;6.40;75.60;;;;;;5027158;28;20022;-73
2020/12/08 11:32:12;;;;;;;7.72;6.85;;;6.50;75.60;;;;;;5028996;28;20472;-74
2020/12/08 11:34:37;;;;;;;9.48;6.32;;;6.50;75.60;;;;;;5028240;28;20110;-73
2020/12/08 11:37:04;;;;;;;9.80;6.47;;;6.60;75.70;;;;;;5034331;28;20536;-73
2020/12/08 11:39:30;;;;;;;8.30;6.38;;;6.70;75.80;;;;;;5033791;28;20030;-75
2020/12/08 11:41:56;;;;;;;10.80;5.95;;;6.70;75.80;;;;;;5032082;28;20038;-77
2020/12/08 11:44:22;;;;;;;6.55;5.95;;;6.80;76.00;;;;;;5028415;28;20358;-75
2020/12/08 11:46:50;;;;;;;6.65;5.95;;;6.80;75.90;;;;;;5026303;28;20053;-76
2020/12/08 11:49:16;;;;;;;7.15;6.28;;;6.90;76.10;;;;;;5028757;28;20025;-73
2020/12/08 11:51:42;;;;;;;6.85;5.50;;;6.90;76.00;;;;;;5028885;28;20271;-73
2020/12/08 11:54:08;;;;;;;6.70;5.80;;;7.00;76.20;;;;;;5030096;28;20026;-73
2020/12/08 11:56:34;;;;;;;9.82;6.38;;;7.00;76.20;;;;;;5028561;28;20475;-73
2020/12/08 11:59:00;;;;;;;12.38;6.95;;;7.10;76.30;;;;;;5028543;28;20099;-75
2020/12/08 12:01:26;;;;;;;6.82;5.90;;;7.10;76.30;;;;;;5010314;28;20029;-74
2020/12/08 12:03:52;;;;;;;9.55;5.93;;;7.20;76.50;;;;;;5028262;28;20404;-74
2020/12/08 12:06:18;;;;;;;7.72;5.93;;;7.20;76.40;;;;;;5028475;28;20045;-76
2020/12/08 12:08:44;;;;;;;10.43;6.32;;;7.30;76.50;;;;;;5026735;28;20100;-73
2020/12/08 12:11:10;;;;;;;8.15;5.55;;;7.40;76.70;;;;;;5027268;28;20099;-73
2020/12/08 12:13:35;;;;;;;7.00;5.38;;;7.50;76.80;;;;;;5026519;28;20036;-73
2020/12/08 12:16:01;;;;;;;6.28;5.65;;;7.60;76.80;;;;;;5027978;28;20053;-75
2020/12/08 12:18:27;;;;;;;7.70;5.45;;;7.60;76.80;;;;;;5027177;28;20219;-77
2020/12/08 12:20:53;;;;;;;7.00;5.82;;;7.70;76.80;;;;;;5010269;28;20149;-74
2020/12/08 12:23:19;;;;;;;6.47;5.40;;;7.80;76.90;;;;;;5026319;28;20053;-76
2020/12/08 12:25:45;;;;;;;5.68;5.18;;;7.80;76.80;;;;;;5010160;28;20453;-74
2020/12/08 12:28:11;;;;;;;6.47;5.25;;;7.90;76.90;;;;;;5026330;28;20034;-74
2020/12/08 12:30:37;;;;;;;7.00;5.53;;;8.00;77.00;;;;;;5028103;28;20112;-74
2020/12/08 12:33:04;;;;;;;5.80;5.18;;;8.00;77.00;;;;;;5027722;28;20195;-75
2020/12/08 12:35:30;;;;;;;5.90;5.13;;;8.00;76.90;;;;;;5027939;28;20439;-75
2020/12/08 12:37:56;;;;;;;8.07;5.30;;;8.10;77.00;;;;;;5027248;28;20025;-74
2020/12/08 12:40:22;;;;;;;7.20;5.20;;;8.10;77.00;;;;;;5026326;28;20116;-77
2020/12/08 12:42:48;;;;;;;6.85;5.65;;;8.20;77.10;;;;;;5028182;28;20079;-76